sensor_id;sensor_type;location;lat;lon;timestamp;P1;durP1;ratioP1;P2;durP2;ratioP2
46365;SDS011;32073;49.166;8.076;2023-06-01T00:03:16;3.03;;;1.15;;
46365;SDS011;32073;49.166;8.076;2023-06-01T00:07:17;1.20;;;0.80;;
46365;SDS011;32073;49.166;8.076;2023-06-01T00:11:17;1.65;;;1.00;;
46365;SDS011;32073;49.166;8.076;2023-06-01T00:15:18;2.83;;;1.20;;
46365;SDS011;32073;49.166;8.076;2023-06-01T00:19:19;2.45;;;1.00;;
46365;SDS011;32073;49.166;8.076;2023-06-01T00:23:20;2.97;;;1.00;;
46365;SDS011;32073;49.166;8.076;2023-06-01T00:27:21;2.83;;;1.30;;
46365;SDS011;32073;49.166;8.076;2023-06-01T00:31:22;3.28;;;1.30;;
46365;SDS011;32073;49.166;8.076;2023-06-01T00:35:24;1.75;;;1.00;;
46365;SDS011;32073;49.166;8.076;2023-06-01T00:39:24;1.58;;;1.00;;
46365;SDS011;32073;49.166;8.076;2023-06-01T00:43:25;2.45;;;1.20;;
46365;SDS011;32073;49.166;8.076;2023-06-01T00:47:25;2.45;;;1.00;;
46365;SDS011;32073;49.166;8.076;2023-06-01T00:51:26;1.50;;;1.05;;
46365;SDS011;32073;49.166;8.076;2023-06-01T00:55:27;2.00;;;0.98;;
46365;SDS011;32073;49.166;8.076;2023-06-01T00:59:28;3.72;;;1.30;;
46365;SDS011;32073;49.166;8.076;2023-06-01T01:03:28;4.40;;;1.00;;
46365;SDS011;32073;49.166;8.076;2023-06-01T01:07:32;2.60;;;0.90;;
46365;SDS011;32073;49.166;8.076;2023-06-01T01:12:27;3.00;;;1.25;;
46365;SDS011;32073;49.166;8.076;2023-06-01T01:21:03;2.22;;;1.08;;
46365;SDS011;32073;49.166;8.076;2023-06-01T01:25:32;3.17;;;1.17;;
46365;SDS011;32073;49.166;8.076;2023-06-01T01:29:51;1.80;;;1.17;;
46365;SDS011;32073;49.166;8.076;2023-06-01T01:33:55;3.20;;;1.20;;
46365;SDS011;32073;49.166;8.076;2023-06-01T01:37:57;2.83;;;1.10;;
46365;SDS011;32073;49.166;8.076;2023-06-01T01:41:58;2.00;;;1.00;;
46365;SDS011;32073;49.166;8.076;2023-06-01T01:46:49;1.95;;;1.17;;
46365;SDS011;32073;49.166;8.076;2023-06-01T01:50:27;2.22;;;1.10;;
46365;SDS011;32073;49.166;8.076;2023-06-01T01:54:36;4.20;;;1.10;;
46365;SDS011;32073;49.166;8.076;2023-06-01T01:58:41;2.33;;;1.13;;
46365;SDS011;32073;49.166;8.076;2023-06-01T02:02:44;1.40;;;0.98;;
46365;SDS011;32073;49.166;8.076;2023-06-01T02:06:46;3.03;;;1.30;;
46365;SDS011;32073;49.166;8.076;2023-06-01T02:10:47;2.97;;;1.45;;
46365;SDS011;32073;49.166;8.076;2023-06-01T02:14:47;3.25;;;0.88;;
46365;SDS011;32073;49.166;8.076;2023-06-01T02:18:48;1.35;;;0.82;;
46365;SDS011;32073;49.166;8.076;2023-06-01T02:22:50;2.58;;;1.20;;
46365;SDS011;32073;49.166;8.076;2023-06-01T02:26:50;1.70;;;0.90;;
46365;SDS011;32073;49.166;8.076;2023-06-01T02:30:54;1.45;;;0.90;;
46365;SDS011;32073;49.166;8.076;2023-06-01T02:34:55;1.65;;;1.00;;
46365;SDS011;32073;49.166;8.076;2023-06-01T02:38:55;2.10;;;1.00;;
46365;SDS011;32073;49.166;8.076;2023-06-01T02:42:56;4.65;;;1.35;;
46365;SDS011;32073;49.166;8.076;2023-06-01T02:46:57;2.05;;;1.08;;
46365;SDS011;32073;49.166;8.076;2023-06-01T02:50:57;1.20;;;0.90;;
46365;SDS011;32073;49.166;8.076;2023-06-01T02:54:58;1.60;;;0.85;;
46365;SDS011;32073;49.166;8.076;2023-06-01T02:58:58;1.25;;;0.88;;
46365;SDS011;32073;49.166;8.076;2023-06-01T03:02:59;1.70;;;1.15;;
46365;SDS011;32073;49.166;8.076;2023-06-01T03:07:00;2.22;;;1.13;;
46365;SDS011;32073;49.166;8.076;2023-06-01T03:11:01;2.38;;;1.05;;
46365;SDS011;32073;49.166;8.076;2023-06-01T03:15:02;2.72;;;1.10;;
46365;SDS011;32073;49.166;8.076;2023-06-01T03:19:04;1.92;;;1.10;;
46365;SDS011;32073;49.166;8.076;2023-06-01T03:23:05;2.75;;;1.42;;
46365;SDS011;32073;49.166;8.076;2023-06-01T03:27:06;4.00;;;1.02;;
46365;SDS011;32073;49.166;8.076;2023-06-01T03:31:08;1.88;;;1.08;;
46365;SDS011;32073;49.166;8.076;2023-06-01T03:35:11;4.03;;;0.85;;
46365;SDS011;32073;49.166;8.076;2023-06-01T03:39:12;3.92;;;1.00;;
46365;SDS011;32073;49.166;8.076;2023-06-01T03:43:13;2.03;;;1.08;;
46365;SDS011;32073;49.166;8.076;2023-06-01T03:47:14;0.80;;;0.80;;
46365;SDS011;32073;49.166;8.076;2023-06-01T03:51:14;2.72;;;1.30;;
46365;SDS011;32073;49.166;8.076;2023-06-01T03:55:15;3.50;;;1.20;;
46365;SDS011;32073;49.166;8.076;2023-06-01T03:59:16;2.72;;;1.10;;
46365;SDS011;32073;49.166;8.076;2023-06-01T04:03:17;1.92;;;1.05;;
46365;SDS011;32073;49.166;8.076;2023-06-01T04:07:21;3.90;;;1.35;;
46365;SDS011;32073;49.166;8.076;2023-06-01T04:11:22;1.95;;;1.08;;
46365;SDS011;32073;49.166;8.076;2023-06-01T04:15:22;1.95;;;1.33;;
46365;SDS011;32073;49.166;8.076;2023-06-01T04:19:23;2.55;;;1.30;;
46365;SDS011;32073;49.166;8.076;2023-06-01T04:23:24;5.35;;;1.27;;
46365;SDS011;32073;49.166;8.076;2023-06-01T04:27:25;2.80;;;1.20;;
46365;SDS011;32073;49.166;8.076;2023-06-01T04:31:26;1.70;;;0.98;;
46365;SDS011;32073;49.166;8.076;2023-06-01T04:35:27;2.20;;;1.20;;
46365;SDS011;32073;49.166;8.076;2023-06-01T04:39:27;1.50;;;1.10;;
46365;SDS011;32073;49.166;8.076;2023-06-01T04:43:28;2.47;;;1.30;;
46365;SDS011;32073;49.166;8.076;2023-06-01T04:47:29;3.40;;;1.58;;
46365;SDS011;32073;49.166;8.076;2023-06-01T04:51:37;3.13;;;1.40;;
46365;SDS011;32073;49.166;8.076;2023-06-01T04:55:38;3.92;;;1.50;;
46365;SDS011;32073;49.166;8.076;2023-06-01T04:59:42;2.53;;;1.23;;
46365;SDS011;32073;49.166;8.076;2023-06-01T05:03:43;2.38;;;1.27;;
46365;SDS011;32073;49.166;8.076;2023-06-01T05:07:45;2.00;;;1.15;;
46365;SDS011;32073;49.166;8.076;2023-06-01T05:11:46;6.82;;;1.30;;
46365;SDS011;32073;49.166;8.076;2023-06-01T05:15:46;2.90;;;1.50;;
46365;SDS011;32073;49.166;8.076;2023-06-01T05:19:47;6.13;;;1.50;;
46365;SDS011;32073;49.166;8.076;2023-06-01T05:23:47;3.40;;;1.60;;
46365;SDS011;32073;49.166;8.076;2023-06-01T05:27:48;3.33;;;1.10;;
46365;SDS011;32073;49.166;8.076;2023-06-01T05:31:49;2.22;;;1.13;;
46365;SDS011;32073;49.166;8.076;2023-06-01T05:35:50;1.85;;;1.13;;
46365;SDS011;32073;49.166;8.076;2023-06-01T05:39:51;2.63;;;1.25;;
46365;SDS011;32073;49.166;8.076;2023-06-01T05:43:52;2.53;;;1.30;;
46365;SDS011;32073;49.166;8.076;2023-06-01T05:47:52;4.25;;;1.42;;
46365;SDS011;32073;49.166;8.076;2023-06-01T05:51:53;3.30;;;1.20;;
46365;SDS011;32073;49.166;8.076;2023-06-01T05:55:54;4.07;;;1.63;;
46365;SDS011;32073;49.166;8.076;2023-06-01T05:59:55;2.17;;;1.20;;
46365;SDS011;32073;49.166;8.076;2023-06-01T06:03:55;3.17;;;1.50;;
46365;SDS011;32073;49.166;8.076;2023-06-01T06:07:57;3.47;;;1.35;;
46365;SDS011;32073;49.166;8.076;2023-06-01T06:11:57;2.92;;;1.42;;
46365;SDS011;32073;49.166;8.076;2023-06-01T06:15:58;2.13;;;1.20;;
46365;SDS011;32073;49.166;8.076;2023-06-01T06:19:59;4.05;;;1.38;;
46365;SDS011;32073;49.166;8.076;2023-06-01T06:24:00;3.15;;;1.35;;
46365;SDS011;32073;49.166;8.076;2023-06-01T06:28:01;3.90;;;1.50;;
46365;SDS011;32073;49.166;8.076;2023-06-01T06:32:02;3.70;;;1.58;;
46365;SDS011;32073;49.166;8.076;2023-06-01T06:36:03;4.30;;;1.40;;
46365;SDS011;32073;49.166;8.076;2023-06-01T06:40:04;4.65;;;1.67;;
46365;SDS011;32073;49.166;8.076;2023-06-01T06:44:06;4.03;;;1.80;;
46365;SDS011;32073;49.166;8.076;2023-06-01T06:48:07;2.47;;;1.33;;
46365;SDS011;32073;49.166;8.076;2023-06-01T06:52:08;2.22;;;1.27;;
46365;SDS011;32073;49.166;8.076;2023-06-01T06:56:10;3.03;;;1.40;;
46365;SDS011;32073;49.166;8.076;2023-06-01T07:00:10;7.65;;;1.40;;
46365;SDS011;32073;49.166;8.076;2023-06-01T07:04:14;3.30;;;1.50;;
46365;SDS011;32073;49.166;8.076;2023-06-01T07:08:15;5.30;;;1.45;;
46365;SDS011;32073;49.166;8.076;2023-06-01T07:12:16;3.78;;;1.55;;
46365;SDS011;32073;49.166;8.076;2023-06-01T07:16:17;2.42;;;1.40;;
46365;SDS011;32073;49.166;8.076;2023-06-01T07:20:17;4.68;;;1.60;;
46365;SDS011;32073;49.166;8.076;2023-06-01T07:24:18;2.88;;;1.63;;
46365;SDS011;32073;49.166;8.076;2023-06-01T07:28:21;3.08;;;1.38;;
46365;SDS011;32073;49.166;8.076;2023-06-01T07:32:27;1.95;;;1.40;;
46365;SDS011;32073;49.166;8.076;2023-06-01T07:36:27;3.45;;;1.40;;
46365;SDS011;32073;49.166;8.076;2023-06-01T07:40:28;3.22;;;1.50;;
46365;SDS011;32073;49.166;8.076;2023-06-01T07:44:30;4.45;;;1.23;;
46365;SDS011;32073;49.166;8.076;2023-06-01T07:48:31;2.30;;;1.40;;
46365;SDS011;32073;49.166;8.076;2023-06-01T07:52:38;1.85;;;1.23;;
46365;SDS011;32073;49.166;8.076;2023-06-01T07:56:38;3.33;;;1.45;;
46365;SDS011;32073;49.166;8.076;2023-06-01T08:00:39;2.72;;;1.27;;
46365;SDS011;32073;49.166;8.076;2023-06-01T08:04:40;3.17;;;1.60;;
46365;SDS011;32073;49.166;8.076;2023-06-01T08:08:41;5.57;;;1.73;;
46365;SDS011;32073;49.166;8.076;2023-06-01T08:12:41;4.82;;;1.42;;
46365;SDS011;32073;49.166;8.076;2023-06-01T08:16:42;4.07;;;1.70;;
46365;SDS011;32073;49.166;8.076;2023-06-01T08:20:43;4.15;;;1.70;;
46365;SDS011;32073;49.166;8.076;2023-06-01T08:24:44;2.45;;;1.35;;
46365;SDS011;32073;49.166;8.076;2023-06-01T08:28:45;3.83;;;1.70;;
46365;SDS011;32073;49.166;8.076;2023-06-01T08:32:51;3.78;;;1.83;;
46365;SDS011;32073;49.166;8.076;2023-06-01T08:36:52;4.00;;;1.58;;
46365;SDS011;32073;49.166;8.076;2023-06-01T08:40:53;3.33;;;1.70;;
46365;SDS011;32073;49.166;8.076;2023-06-01T08:44:54;3.20;;;1.55;;
46365;SDS011;32073;49.166;8.076;2023-06-01T08:48:57;2.95;;;2.00;;
46365;SDS011;32073;49.166;8.076;2023-06-01T08:52:59;4.20;;;1.67;;
46365;SDS011;32073;49.166;8.076;2023-06-01T08:57:03;3.97;;;1.40;;
46365;SDS011;32073;49.166;8.076;2023-06-01T09:01:07;4.28;;;1.55;;
46365;SDS011;32073;49.166;8.076;2023-06-01T09:05:08;3.38;;;1.60;;
46365;SDS011;32073;49.166;8.076;2023-06-01T09:09:09;3.33;;;1.50;;
46365;SDS011;32073;49.166;8.076;2023-06-01T09:13:12;3.25;;;1.80;;
46365;SDS011;32073;49.166;8.076;2023-06-01T09:17:30;5.55;;;2.13;;
46365;SDS011;32073;49.166;8.076;2023-06-01T09:21:30;3.63;;;1.67;;
46365;SDS011;32073;49.166;8.076;2023-06-01T09:25:31;4.45;;;1.58;;
46365;SDS011;32073;49.166;8.076;2023-06-01T09:29:33;2.58;;;1.50;;
46365;SDS011;32073;49.166;8.076;2023-06-01T09:33:34;3.63;;;1.40;;
46365;SDS011;32073;49.166;8.076;2023-06-01T09:37:36;5.95;;;1.90;;
46365;SDS011;32073;49.166;8.076;2023-06-01T09:41:44;2.97;;;1.88;;
46365;SDS011;32073;49.166;8.076;2023-06-01T09:46:06;3.55;;;1.40;;
46365;SDS011;32073;49.166;8.076;2023-06-01T09:50:09;3.92;;;1.67;;
46365;SDS011;32073;49.166;8.076;2023-06-01T09:54:20;4.00;;;1.60;;
46365;SDS011;32073;49.166;8.076;2023-06-01T09:58:26;3.15;;;1.42;;
46365;SDS011;32073;49.166;8.076;2023-06-01T10:02:27;3.08;;;1.83;;
46365;SDS011;32073;49.166;8.076;2023-06-01T10:06:32;5.45;;;1.67;;
46365;SDS011;32073;49.166;8.076;2023-06-01T10:10:36;3.97;;;1.50;;
46365;SDS011;32073;49.166;8.076;2023-06-01T10:14:38;3.17;;;1.58;;
46365;SDS011;32073;49.166;8.076;2023-06-01T10:18:39;3.78;;;1.60;;
46365;SDS011;32073;49.166;8.076;2023-06-01T10:22:41;2.50;;;1.30;;
46365;SDS011;32073;49.166;8.076;2023-06-01T10:26:56;3.70;;;2.20;;
46365;SDS011;32073;49.166;8.076;2023-06-01T10:39:43;3.20;;;1.65;;
46365;SDS011;32073;49.166;8.076;2023-06-01T10:43:44;7.10;;;1.50;;
46365;SDS011;32073;49.166;8.076;2023-06-01T10:47:45;3.10;;;1.50;;
46365;SDS011;32073;49.166;8.076;2023-06-01T10:51:47;3.88;;;1.73;;
46365;SDS011;32073;49.166;8.076;2023-06-01T10:55:48;3.17;;;1.42;;
46365;SDS011;32073;49.166;8.076;2023-06-01T11:00:28;1.98;;;1.17;;
46365;SDS011;32073;49.166;8.076;2023-06-01T11:04:37;3.03;;;1.50;;
46365;SDS011;32073;49.166;8.076;2023-06-01T11:17:24;4.18;;;1.45;;
46365;SDS011;32073;49.166;8.076;2023-06-01T11:25:40;2.42;;;1.50;;
46365;SDS011;32073;49.166;8.076;2023-06-01T11:29:46;2.38;;;1.10;;
46365;SDS011;32073;49.166;8.076;2023-06-01T11:33:49;2.97;;;1.40;;
46365;SDS011;32073;49.166;8.076;2023-06-01T11:37:58;1.20;;;1.08;;
46365;SDS011;32073;49.166;8.076;2023-06-01T11:42:18;5.85;;;1.65;;
46365;SDS011;32073;49.166;8.076;2023-06-01T11:46:20;4.55;;;1.25;;
46365;SDS011;32073;49.166;8.076;2023-06-01T11:50:23;4.18;;;1.15;;
46365;SDS011;32073;49.166;8.076;2023-06-01T11:54:25;2.55;;;1.40;;
46365;SDS011;32073;49.166;8.076;2023-06-01T11:58:29;1.20;;;1.02;;
46365;SDS011;32073;49.166;8.076;2023-06-01T12:02:30;4.10;;;1.60;;
46365;SDS011;32073;49.166;8.076;2023-06-01T12:06:31;2.65;;;1.30;;
46365;SDS011;32073;49.166;8.076;2023-06-01T12:10:31;2.90;;;1.33;;
46365;SDS011;32073;49.166;8.076;2023-06-01T12:14:33;2.40;;;1.30;;
46365;SDS011;32073;49.166;8.076;2023-06-01T12:18:34;2.22;;;1.23;;
46365;SDS011;32073;49.166;8.076;2023-06-01T12:22:34;5.05;;;1.27;;
46365;SDS011;32073;49.166;8.076;2023-06-01T12:26:36;1.35;;;0.88;;
46365;SDS011;32073;49.166;8.076;2023-06-01T12:30:36;2.03;;;1.02;;
46365;SDS011;32073;49.166;8.076;2023-06-01T12:34:37;1.58;;;1.00;;
46365;SDS011;32073;49.166;8.076;2023-06-01T12:38:49;2.65;;;1.33;;
46365;SDS011;32073;49.166;8.076;2023-06-01T12:42:53;1.83;;;1.13;;
46365;SDS011;32073;49.166;8.076;2023-06-01T12:46:57;4.97;;;1.40;;
46365;SDS011;32073;49.166;8.076;2023-06-01T12:50:59;3.33;;;1.20;;
46365;SDS011;32073;49.166;8.076;2023-06-01T12:55:00;4.65;;;1.30;;
46365;SDS011;32073;49.166;8.076;2023-06-01T12:59:03;4.20;;;1.60;;
46365;SDS011;32073;49.166;8.076;2023-06-01T13:03:04;5.10;;;1.10;;
46365;SDS011;32073;49.166;8.076;2023-06-01T13:07:05;2.63;;;1.30;;
46365;SDS011;32073;49.166;8.076;2023-06-01T13:11:05;2.88;;;1.10;;
46365;SDS011;32073;49.166;8.076;2023-06-01T13:15:07;2.95;;;1.20;;
46365;SDS011;32073;49.166;8.076;2023-06-01T13:19:08;3.33;;;1.10;;
46365;SDS011;32073;49.166;8.076;2023-06-01T13:23:09;4.78;;;1.25;;
46365;SDS011;32073;49.166;8.076;2023-06-01T13:27:11;1.83;;;1.30;;
46365;SDS011;32073;49.166;8.076;2023-06-01T13:31:12;2.33;;;1.20;;
46365;SDS011;32073;49.166;8.076;2023-06-01T13:35:12;2.10;;;1.17;;
46365;SDS011;32073;49.166;8.076;2023-06-01T13:39:13;2.67;;;1.00;;
46365;SDS011;32073;49.166;8.076;2023-06-01T13:43:14;2.58;;;1.25;;
46365;SDS011;32073;49.166;8.076;2023-06-01T13:47:14;1.70;;;0.90;;
46365;SDS011;32073;49.166;8.076;2023-06-01T13:51:15;3.55;;;1.20;;
46365;SDS011;32073;49.166;8.076;2023-06-01T13:55:17;5.15;;;1.10;;
46365;SDS011;32073;49.166;8.076;2023-06-01T13:59:17;2.35;;;1.33;;
46365;SDS011;32073;49.166;8.076;2023-06-01T14:03:18;2.20;;;1.17;;
46365;SDS011;32073;49.166;8.076;2023-06-01T14:07:19;2.95;;;1.38;;
46365;SDS011;32073;49.166;8.076;2023-06-01T14:11:19;2.28;;;1.20;;
46365;SDS011;32073;49.166;8.076;2023-06-01T14:15:20;3.08;;;1.00;;
46365;SDS011;32073;49.166;8.076;2023-06-01T14:19:21;2.17;;;1.35;;
46365;SDS011;32073;49.166;8.076;2023-06-01T14:23:22;3.20;;;1.20;;
46365;SDS011;32073;49.166;8.076;2023-06-01T14:27:22;2.50;;;1.48;;
46365;SDS011;32073;49.166;8.076;2023-06-01T14:31:23;1.75;;;1.48;;
46365;SDS011;32073;49.166;8.076;2023-06-01T14:35:24;2.03;;;1.30;;
46365;SDS011;32073;49.166;8.076;2023-06-01T14:39:26;4.35;;;1.60;;
46365;SDS011;32073;49.166;8.076;2023-06-01T14:43:26;5.15;;;1.40;;
46365;SDS011;32073;49.166;8.076;2023-06-01T14:47:27;2.00;;;1.58;;
46365;SDS011;32073;49.166;8.076;2023-06-01T14:51:28;2.90;;;1.35;;
46365;SDS011;32073;49.166;8.076;2023-06-01T14:55:28;2.13;;;1.10;;
46365;SDS011;32073;49.166;8.076;2023-06-01T14:59:29;3.13;;;1.42;;
46365;SDS011;32073;49.166;8.076;2023-06-01T15:03:30;5.22;;;3.38;;
46365;SDS011;32073;49.166;8.076;2023-06-01T15:07:30;5.20;;;3.00;;
46365;SDS011;32073;49.166;8.076;2023-06-01T15:11:31;2.75;;;2.00;;
46365;SDS011;32073;49.166;8.076;2023-06-01T15:15:32;2.97;;;1.35;;
46365;SDS011;32073;49.166;8.076;2023-06-01T15:19:33;3.30;;;1.40;;
46365;SDS011;32073;49.166;8.076;2023-06-01T15:23:33;2.08;;;1.30;;
46365;SDS011;32073;49.166;8.076;2023-06-01T15:27:34;3.40;;;1.30;;
46365;SDS011;32073;49.166;8.076;2023-06-01T15:31:36;5.80;;;2.40;;
46365;SDS011;32073;49.166;8.076;2023-06-01T15:35:36;3.17;;;1.23;;
46365;SDS011;32073;49.166;8.076;2023-06-01T15:39:37;1.83;;;1.20;;
46365;SDS011;32073;49.166;8.076;2023-06-01T15:43:38;2.50;;;1.23;;
46365;SDS011;32073;49.166;8.076;2023-06-01T15:47:39;3.40;;;1.23;;
46365;SDS011;32073;49.166;8.076;2023-06-01T15:51:40;4.07;;;1.65;;
46365;SDS011;32073;49.166;8.076;2023-06-01T15:55:40;3.70;;;1.48;;
46365;SDS011;32073;49.166;8.076;2023-06-01T15:59:41;3.65;;;1.63;;
46365;SDS011;32073;49.166;8.076;2023-06-01T16:03:42;2.80;;;1.23;;
46365;SDS011;32073;49.166;8.076;2023-06-01T16:07:43;5.43;;;1.25;;
46365;SDS011;32073;49.166;8.076;2023-06-01T16:11:44;2.65;;;1.30;;
46365;SDS011;32073;49.166;8.076;2023-06-01T16:15:45;6.00;;;1.10;;
46365;SDS011;32073;49.166;8.076;2023-06-01T16:19:45;4.72;;;1.40;;
46365;SDS011;32073;49.166;8.076;2023-06-01T16:23:46;5.07;;;1.52;;
46365;SDS011;32073;49.166;8.076;2023-06-01T16:27:47;3.55;;;1.33;;
46365;SDS011;32073;49.166;8.076;2023-06-01T16:31:47;4.80;;;1.70;;
46365;SDS011;32073;49.166;8.076;2023-06-01T16:35:49;3.17;;;1.88;;
46365;SDS011;32073;49.166;8.076;2023-06-01T16:39:50;5.75;;;1.40;;
46365;SDS011;32073;49.166;8.076;2023-06-01T16:43:51;2.25;;;1.45;;
46365;SDS011;32073;49.166;8.076;2023-06-01T16:47:51;6.65;;;1.20;;
46365;SDS011;32073;49.166;8.076;2023-06-01T16:51:52;2.05;;;1.30;;
46365;SDS011;32073;49.166;8.076;2023-06-01T16:55:52;2.17;;;1.38;;
46365;SDS011;32073;49.166;8.076;2023-06-01T16:59:53;4.22;;;2.42;;
46365;SDS011;32073;49.166;8.076;2023-06-01T17:03:55;6.10;;;1.73;;
46365;SDS011;32073;49.166;8.076;2023-06-01T17:07:56;4.32;;;1.40;;
46365;SDS011;32073;49.166;8.076;2023-06-01T17:11:56;3.80;;;1.60;;
46365;SDS011;32073;49.166;8.076;2023-06-01T17:15:57;6.68;;;3.60;;
46365;SDS011;32073;49.166;8.076;2023-06-01T17:19:58;5.40;;;2.42;;
46365;SDS011;32073;49.166;8.076;2023-06-01T17:23:58;2.15;;;1.48;;
46365;SDS011;32073;49.166;8.076;2023-06-01T17:27:59;8.88;;;5.93;;
46365;SDS011;32073;49.166;8.076;2023-06-01T17:32:00;18.70;;;8.93;;
46365;SDS011;32073;49.166;8.076;2023-06-01T17:36:04;8.02;;;4.28;;
46365;SDS011;32073;49.166;8.076;2023-06-01T17:40:05;5.22;;;2.80;;
46365;SDS011;32073;49.166;8.076;2023-06-01T17:44:07;3.33;;;1.90;;
46365;SDS011;32073;49.166;8.076;2023-06-01T17:48:08;2.92;;;1.35;;
46365;SDS011;32073;49.166;8.076;2023-06-01T17:52:08;1.90;;;1.42;;
46365;SDS011;32073;49.166;8.076;2023-06-01T17:56:09;4.72;;;1.48;;
46365;SDS011;32073;49.166;8.076;2023-06-01T18:00:10;2.80;;;1.63;;
46365;SDS011;32073;49.166;8.076;2023-06-01T18:04:11;3.10;;;1.63;;
46365;SDS011;32073;49.166;8.076;2023-06-01T18:08:12;4.00;;;1.70;;
46365;SDS011;32073;49.166;8.076;2023-06-01T18:12:13;2.20;;;1.50;;
46365;SDS011;32073;49.166;8.076;2023-06-01T18:16:14;2.17;;;1.50;;
46365;SDS011;32073;49.166;8.076;2023-06-01T18:20:15;2.78;;;1.50;;
46365;SDS011;32073;49.166;8.076;2023-06-01T18:24:15;3.35;;;1.45;;
46365;SDS011;32073;49.166;8.076;2023-06-01T18:28:16;2.90;;;1.10;;
46365;SDS011;32073;49.166;8.076;2023-06-01T18:32:17;2.85;;;1.35;;
46365;SDS011;32073;49.166;8.076;2023-06-01T18:36:30;3.38;;;1.70;;
46365;SDS011;32073;49.166;8.076;2023-06-01T18:40:40;2.55;;;1.70;;
46365;SDS011;32073;49.166;8.076;2023-06-01T18:45:07;3.20;;;1.55;;
46365;SDS011;32073;49.166;8.076;2023-06-01T18:49:08;2.95;;;1.50;;
46365;SDS011;32073;49.166;8.076;2023-06-01T18:53:09;4.05;;;2.25;;
46365;SDS011;32073;49.166;8.076;2023-06-01T18:57:10;4.95;;;2.20;;
46365;SDS011;32073;49.166;8.076;2023-06-01T19:01:11;2.42;;;1.77;;
46365;SDS011;32073;49.166;8.076;2023-06-01T19:05:12;4.60;;;1.80;;
46365;SDS011;32073;49.166;8.076;2023-06-01T19:09:16;4.68;;;2.00;;
46365;SDS011;32073;49.166;8.076;2023-06-01T19:13:18;3.65;;;2.75;;
46365;SDS011;32073;49.166;8.076;2023-06-01T19:17:19;4.47;;;2.90;;
46365;SDS011;32073;49.166;8.076;2023-06-01T19:21:21;4.28;;;2.90;;
46365;SDS011;32073;49.166;8.076;2023-06-01T19:25:24;4.65;;;3.08;;
46365;SDS011;32073;49.166;8.076;2023-06-01T19:29:24;4.20;;;3.15;;
46365;SDS011;32073;49.166;8.076;2023-06-01T19:33:25;3.30;;;2.90;;
46365;SDS011;32073;49.166;8.076;2023-06-01T19:37:26;4.82;;;3.10;;
46365;SDS011;32073;49.166;8.076;2023-06-01T19:41:31;4.80;;;3.28;;
46365;SDS011;32073;49.166;8.076;2023-06-01T19:45:32;5.30;;;3.60;;
46365;SDS011;32073;49.166;8.076;2023-06-01T19:49:34;5.32;;;3.90;;
46365;SDS011;32073;49.166;8.076;2023-06-01T19:53:43;4.95;;;3.92;;
46365;SDS011;32073;49.166;8.076;2023-06-01T19:57:46;6.65;;;4.68;;
46365;SDS011;32073;49.166;8.076;2023-06-01T20:01:46;6.07;;;4.57;;
46365;SDS011;32073;49.166;8.076;2023-06-01T20:05:50;8.27;;;5.25;;
46365;SDS011;32073;49.166;8.076;2023-06-01T20:09:51;7.22;;;5.32;;
46365;SDS011;32073;49.166;8.076;2023-06-01T20:13:52;13.57;;;5.70;;
46365;SDS011;32073;49.166;8.076;2023-06-01T20:17:52;7.43;;;5.60;;
46365;SDS011;32073;49.166;8.076;2023-06-01T20:21:54;7.63;;;5.70;;
46365;SDS011;32073;49.166;8.076;2023-06-01T20:25:58;7.10;;;5.05;;
46365;SDS011;32073;49.166;8.076;2023-06-01T20:30:02;8.95;;;5.88;;
46365;SDS011;32073;49.166;8.076;2023-06-01T20:34:04;8.73;;;5.70;;
46365;SDS011;32073;49.166;8.076;2023-06-01T20:38:13;8.20;;;5.65;;
46365;SDS011;32073;49.166;8.076;2023-06-01T20:42:14;8.77;;;5.43;;
46365;SDS011;32073;49.166;8.076;2023-06-01T20:46:15;8.60;;;5.85;;
46365;SDS011;32073;49.166;8.076;2023-06-01T20:50:17;9.07;;;5.55;;
46365;SDS011;32073;49.166;8.076;2023-06-01T20:54:19;8.13;;;5.50;;
46365;SDS011;32073;49.166;8.076;2023-06-01T20:58:27;11.02;;;5.78;;
46365;SDS011;32073;49.166;8.076;2023-06-01T21:02:28;9.43;;;5.65;;
46365;SDS011;32073;49.166;8.076;2023-06-01T21:06:29;8.60;;;5.47;;
46365;SDS011;32073;49.166;8.076;2023-06-01T21:10:30;6.53;;;5.10;;
46365;SDS011;32073;49.166;8.076;2023-06-01T21:14:31;6.35;;;4.78;;
46365;SDS011;32073;49.166;8.076;2023-06-01T21:18:32;8.20;;;5.38;;
46365;SDS011;32073;49.166;8.076;2023-06-01T21:22:33;7.68;;;5.00;;
46365;SDS011;32073;49.166;8.076;2023-06-01T21:26:34;5.68;;;4.40;;
46365;SDS011;32073;49.166;8.076;2023-06-01T21:30:38;6.38;;;3.95;;
46365;SDS011;32073;49.166;8.076;2023-06-01T21:34:40;8.55;;;4.50;;
46365;SDS011;32073;49.166;8.076;2023-06-01T21:38:41;9.48;;;4.32;;
46365;SDS011;32073;49.166;8.076;2023-06-01T21:42:42;6.80;;;4.35;;
46365;SDS011;32073;49.166;8.076;2023-06-01T21:46:43;6.97;;;4.05;;
46365;SDS011;32073;49.166;8.076;2023-06-01T21:50:43;6.40;;;3.80;;
46365;SDS011;32073;49.166;8.076;2023-06-01T21:54:46;6.55;;;4.22;;
46365;SDS011;32073;49.166;8.076;2023-06-01T21:58:47;7.32;;;3.90;;
46365;SDS011;32073;49.166;8.076;2023-06-01T22:02:48;7.75;;;4.07;;
46365;SDS011;32073;49.166;8.076;2023-06-01T22:06:49;6.10;;;3.47;;
46365;SDS011;32073;49.166;8.076;2023-06-01T22:10:49;7.68;;;4.47;;
46365;SDS011;32073;49.166;8.076;2023-06-01T22:14:50;6.40;;;4.13;;
46365;SDS011;32073;49.166;8.076;2023-06-01T22:18:51;7.28;;;4.35;;
46365;SDS011;32073;49.166;8.076;2023-06-01T22:22:51;8.80;;;4.32;;
46365;SDS011;32073;49.166;8.076;2023-06-01T22:26:52;6.32;;;3.50;;
46365;SDS011;32073;49.166;8.076;2023-06-01T22:30:53;6.03;;;3.90;;
46365;SDS011;32073;49.166;8.076;2023-06-01T22:34:53;6.03;;;3.25;;
46365;SDS011;32073;49.166;8.076;2023-06-01T22:38:54;6.53;;;3.80;;
46365;SDS011;32073;49.166;8.076;2023-06-01T22:42:55;6.38;;;3.75;;
46365;SDS011;32073;49.166;8.076;2023-06-01T22:46:57;7.75;;;3.72;;
46365;SDS011;32073;49.166;8.076;2023-06-01T22:50:57;5.72;;;4.10;;
46365;SDS011;32073;49.166;8.076;2023-06-01T22:55:00;5.93;;;3.53;;
46365;SDS011;32073;49.166;8.076;2023-06-01T22:59:05;5.70;;;4.18;;
46365;SDS011;32073;49.166;8.076;2023-06-01T23:03:06;6.00;;;3.72;;
46365;SDS011;32073;49.166;8.076;2023-06-01T23:07:06;6.60;;;4.00;;
46365;SDS011;32073;49.166;8.076;2023-06-01T23:11:07;8.45;;;3.95;;
46365;SDS011;32073;49.166;8.076;2023-06-01T23:15:08;7.03;;;3.58;;
46365;SDS011;32073;49.166;8.076;2023-06-01T23:19:16;5.18;;;3.50;;
46365;SDS011;32073;49.166;8.076;2023-06-01T23:23:18;7.32;;;4.10;;
46365;SDS011;32073;49.166;8.076;2023-06-01T23:27:19;7.00;;;3.80;;
46365;SDS011;32073;49.166;8.076;2023-06-01T23:31:20;5.35;;;3.45;;
46365;SDS011;32073;49.166;8.076;2023-06-01T23:35:20;8.70;;;3.90;;
46365;SDS011;32073;49.166;8.076;2023-06-01T23:39:21;6.65;;;3.92;;
46365;SDS011;32073;49.166;8.076;2023-06-01T23:43:23;5.10;;;3.53;;
46365;SDS011;32073;49.166;8.076;2023-06-01T23:47:23;5.93;;;3.75;;
46365;SDS011;32073;49.166;8.076;2023-06-01T23:51:24;6.93;;;3.97;;
46365;SDS011;32073;49.166;8.076;2023-06-01T23:55:26;6.80;;;4.05;;
46365;SDS011;32073;49.166;8.076;2023-06-01T23:59:26;5.75;;;3.58;;
